Terminal Aerodrome Forecast
Issued by NWS Atlanta, GA

Home | Current Version | Previous Version | Text Only | Print | Product List | Glossary On
Versions: 1 2 3 4 5 6 7 8 9 10 11 12 13
146
FTUS42 KFFC 110956 AAA
TAFMCN
TAF AMD
KMCN 110956Z 1110/1206 08003KT P6SM BKN025
     FM111800 09006KT P6SM BKN015
     FM120000 09005KT P6SM VCSH BKN010
     FM120500 10004KT 5SM -RADZ BR OVC007=

USA.gov is the U.S. government's official web portal to all federal, state and local government web resources and services.